sensor_id;sensor_type;location;lat;lon;timestamp;P1;durP1;ratioP1;P2;durP2;ratioP2
79369;SDS011;68835;53.096;17.932;2023-08-30T00:01:30;13.90;;;5.70;;
79369;SDS011;68835;53.096;17.932;2023-08-30T00:03:58;18.40;;;7.10;;
79369;SDS011;68835;53.096;17.932;2023-08-30T00:06:25;16.20;;;6.00;;
79369;SDS011;68835;53.096;17.932;2023-08-30T00:08:53;15.70;;;5.20;;
79369;SDS011;68835;53.096;17.932;2023-08-30T00:11:20;8.10;;;2.80;;
79369;SDS011;68835;53.096;17.932;2023-08-30T00:13:48;15.10;;;5.30;;
79369;SDS011;68835;53.096;17.932;2023-08-30T00:16:15;18.10;;;6.30;;
79369;SDS011;68835;53.096;17.932;2023-08-30T00:18:43;20.70;;;7.00;;
79369;SDS011;68835;53.096;17.932;2023-08-30T00:21:12;20.00;;;6.90;;
79369;SDS011;68835;53.096;17.932;2023-08-30T00:26:06;12.80;;;5.00;;
79369;SDS011;68835;53.096;17.932;2023-08-30T00:28:33;16.40;;;5.90;;
79369;SDS011;68835;53.096;17.932;2023-08-30T00:31:01;15.00;;;5.40;;
79369;SDS011;68835;53.096;17.932;2023-08-30T00:33:29;15.10;;;5.40;;
79369;SDS011;68835;53.096;17.932;2023-08-30T00:35:57;13.00;;;5.30;;
79369;SDS011;68835;53.096;17.932;2023-08-30T00:38:26;14.40;;;5.60;;
79369;SDS011;68835;53.096;17.932;2023-08-30T00:40:55;8.40;;;3.80;;
79369;SDS011;68835;53.096;17.932;2023-08-30T00:43:22;16.10;;;5.60;;
79369;SDS011;68835;53.096;17.932;2023-08-30T00:45:50;18.00;;;6.50;;
79369;SDS011;68835;53.096;17.932;2023-08-30T00:48:19;21.80;;;7.00;;
79369;SDS011;68835;53.096;17.932;2023-08-30T00:50:48;12.90;;;4.20;;
79369;SDS011;68835;53.096;17.932;2023-08-30T00:53:15;15.40;;;5.30;;
79369;SDS011;68835;53.096;17.932;2023-08-30T00:55:45;11.70;;;5.00;;
79369;SDS011;68835;53.096;17.932;2023-08-30T00:58:13;15.20;;;5.70;;
79369;SDS011;68835;53.096;17.932;2023-08-30T01:00:41;11.30;;;4.30;;
79369;SDS011;68835;53.096;17.932;2023-08-30T01:03:10;15.20;;;5.20;;
79369;SDS011;68835;53.096;17.932;2023-08-30T01:05:38;17.50;;;6.40;;
79369;SDS011;68835;53.096;17.932;2023-08-30T01:08:05;19.40;;;7.30;;
79369;SDS011;68835;53.096;17.932;2023-08-30T01:13:15;6.40;;;3.00;;
79369;SDS011;68835;53.096;17.932;2023-08-30T01:15:51;17.60;;;6.50;;
79369;SDS011;68835;53.096;17.932;2023-08-30T01:18:22;8.60;;;3.70;;
79369;SDS011;68835;53.096;17.932;2023-08-30T01:20:53;12.50;;;4.80;;
79369;SDS011;68835;53.096;17.932;2023-08-30T01:23:42;9.80;;;4.00;;
79369;SDS011;68835;53.096;17.932;2023-08-30T01:26:23;15.70;;;5.10;;
79369;SDS011;68835;53.096;17.932;2023-08-30T01:28:56;8.90;;;3.60;;
79369;SDS011;68835;53.096;17.932;2023-08-30T01:31:27;20.80;;;6.00;;
79369;SDS011;68835;53.096;17.932;2023-08-30T01:33:57;8.90;;;3.50;;
79369;SDS011;68835;53.096;17.932;2023-08-30T01:36:25;18.50;;;5.80;;
79369;SDS011;68835;53.096;17.932;2023-08-30T01:38:54;15.90;;;5.40;;
79369;SDS011;68835;53.096;17.932;2023-08-30T01:41:28;23.30;;;6.20;;
79369;SDS011;68835;53.096;17.932;2023-08-30T01:43:57;17.70;;;6.10;;
79369;SDS011;68835;53.096;17.932;2023-08-30T01:46:26;17.90;;;5.90;;
79369;SDS011;68835;53.096;17.932;2023-08-30T01:48:54;17.10;;;6.10;;
79369;SDS011;68835;53.096;17.932;2023-08-30T01:51:23;8.90;;;3.40;;
79369;SDS011;68835;53.096;17.932;2023-08-30T01:53:52;17.50;;;6.00;;
79369;SDS011;68835;53.096;17.932;2023-08-30T01:56:21;16.40;;;5.70;;
79369;SDS011;68835;53.096;17.932;2023-08-30T01:58:48;12.80;;;4.20;;
79369;SDS011;68835;53.096;17.932;2023-08-30T02:01:16;13.00;;;3.80;;
79369;SDS011;68835;53.096;17.932;2023-08-30T02:03:43;13.10;;;4.70;;
79369;SDS011;68835;53.096;17.932;2023-08-30T02:06:17;13.40;;;5.10;;
79369;SDS011;68835;53.096;17.932;2023-08-30T02:08:56;14.20;;;4.40;;
79369;SDS011;68835;53.096;17.932;2023-08-30T02:11:31;11.30;;;4.30;;
79369;SDS011;68835;53.096;17.932;2023-08-30T02:14:01;13.20;;;4.60;;
79369;SDS011;68835;53.096;17.932;2023-08-30T02:16:34;14.80;;;5.50;;
79369;SDS011;68835;53.096;17.932;2023-08-30T02:19:03;14.00;;;4.50;;
79369;SDS011;68835;53.096;17.932;2023-08-30T02:21:33;9.10;;;3.70;;
79369;SDS011;68835;53.096;17.932;2023-08-30T02:24:00;14.90;;;5.50;;
79369;SDS011;68835;53.096;17.932;2023-08-30T02:26:27;14.00;;;4.30;;
79369;SDS011;68835;53.096;17.932;2023-08-30T02:28:55;16.70;;;4.40;;
79369;SDS011;68835;53.096;17.932;2023-08-30T02:31:22;15.60;;;5.00;;
79369;SDS011;68835;53.096;17.932;2023-08-30T02:33:49;9.60;;;3.80;;
79369;SDS011;68835;53.096;17.932;2023-08-30T02:36:17;9.80;;;3.20;;
79369;SDS011;68835;53.096;17.932;2023-08-30T02:38:44;10.30;;;3.80;;
79369;SDS011;68835;53.096;17.932;2023-08-30T02:41:15;13.10;;;5.20;;
79369;SDS011;68835;53.096;17.932;2023-08-30T02:43:43;11.70;;;4.40;;
79369;SDS011;68835;53.096;17.932;2023-08-30T02:48:39;5.80;;;2.30;;
79369;SDS011;68835;53.096;17.932;2023-08-30T02:51:08;8.00;;;3.40;;
79369;SDS011;68835;53.096;17.932;2023-08-30T02:58:30;10.10;;;3.80;;
79369;SDS011;68835;53.096;17.932;2023-08-30T03:01:00;8.50;;;3.30;;
79369;SDS011;68835;53.096;17.932;2023-08-30T03:03:29;7.40;;;2.60;;
79369;SDS011;68835;53.096;17.932;2023-08-30T03:05:56;4.10;;;1.90;;
79369;SDS011;68835;53.096;17.932;2023-08-30T03:08:24;7.20;;;3.00;;
79369;SDS011;68835;53.096;17.932;2023-08-30T03:15:46;6.10;;;2.10;;
79369;SDS011;68835;53.096;17.932;2023-08-30T03:18:13;5.70;;;2.40;;
79369;SDS011;68835;53.096;17.932;2023-08-30T03:23:08;5.70;;;2.80;;
79369;SDS011;68835;53.096;17.932;2023-08-30T03:25:35;7.70;;;2.90;;
79369;SDS011;68835;53.096;17.932;2023-08-30T03:30:30;9.20;;;3.70;;
79369;SDS011;68835;53.096;17.932;2023-08-30T03:32:58;6.30;;;2.70;;
79369;SDS011;68835;53.096;17.932;2023-08-30T03:35:25;5.70;;;2.30;;
79369;SDS011;68835;53.096;17.932;2023-08-30T03:40:20;5.90;;;2.40;;
79369;SDS011;68835;53.096;17.932;2023-08-30T03:45:15;9.40;;;3.50;;
79369;SDS011;68835;53.096;17.932;2023-08-30T03:50:11;12.90;;;5.20;;
79369;SDS011;68835;53.096;17.932;2023-08-30T03:55:06;7.60;;;2.80;;
79369;SDS011;68835;53.096;17.932;2023-08-30T03:57:34;12.20;;;4.20;;
79369;SDS011;68835;53.096;17.932;2023-08-30T04:00:03;12.90;;;4.60;;
79369;SDS011;68835;53.096;17.932;2023-08-30T04:02:41;18.70;;;6.00;;
79369;SDS011;68835;53.096;17.932;2023-08-30T04:05:09;16.50;;;5.70;;
79369;SDS011;68835;53.096;17.932;2023-08-30T04:07:36;14.80;;;4.70;;
79369;SDS011;68835;53.096;17.932;2023-08-30T04:10:03;11.70;;;4.00;;
79369;SDS011;68835;53.096;17.932;2023-08-30T04:12:34;13.80;;;4.80;;
79369;SDS011;68835;53.096;17.932;2023-08-30T04:15:02;18.00;;;6.30;;
79369;SDS011;68835;53.096;17.932;2023-08-30T04:17:30;12.80;;;4.70;;
79369;SDS011;68835;53.096;17.932;2023-08-30T04:19:58;9.40;;;3.70;;
79369;SDS011;68835;53.096;17.932;2023-08-30T04:22:25;10.50;;;4.30;;
79369;SDS011;68835;53.096;17.932;2023-08-30T04:24:52;5.90;;;3.40;;
79369;SDS011;68835;53.096;17.932;2023-08-30T04:27:20;10.30;;;3.90;;
79369;SDS011;68835;53.096;17.932;2023-08-30T04:29:47;8.00;;;2.80;;
79369;SDS011;68835;53.096;17.932;2023-08-30T04:34:41;8.90;;;3.60;;
79369;SDS011;68835;53.096;17.932;2023-08-30T04:37:09;7.90;;;3.50;;
79369;SDS011;68835;53.096;17.932;2023-08-30T04:39:36;10.70;;;3.70;;
79369;SDS011;68835;53.096;17.932;2023-08-30T04:44:31;5.90;;;2.70;;
79369;SDS011;68835;53.096;17.932;2023-08-30T04:46:59;10.40;;;3.30;;
79369;SDS011;68835;53.096;17.932;2023-08-30T04:51:56;10.70;;;4.00;;
79369;SDS011;68835;53.096;17.932;2023-08-30T04:56:51;8.70;;;3.10;;
79369;SDS011;68835;53.096;17.932;2023-08-30T04:59:19;10.20;;;3.50;;
79369;SDS011;68835;53.096;17.932;2023-08-30T05:01:48;15.70;;;5.20;;
79369;SDS011;68835;53.096;17.932;2023-08-30T05:04:18;13.90;;;4.20;;
79369;SDS011;68835;53.096;17.932;2023-08-30T05:06:45;15.30;;;5.20;;
79369;SDS011;68835;53.096;17.932;2023-08-30T05:09:12;14.00;;;5.10;;
79369;SDS011;68835;53.096;17.932;2023-08-30T05:14:07;9.50;;;3.20;;
79369;SDS011;68835;53.096;17.932;2023-08-30T05:16:40;7.90;;;2.90;;
79369;SDS011;68835;53.096;17.932;2023-08-30T05:21:35;6.70;;;3.00;;
79369;SDS011;68835;53.096;17.932;2023-08-30T05:24:04;10.70;;;3.80;;
79369;SDS011;68835;53.096;17.932;2023-08-30T05:26:34;13.60;;;3.80;;
79369;SDS011;68835;53.096;17.932;2023-08-30T05:29:02;10.60;;;3.40;;
79369;SDS011;68835;53.096;17.932;2023-08-30T05:31:30;8.30;;;2.90;;
79369;SDS011;68835;53.096;17.932;2023-08-30T05:34:20;10.20;;;3.60;;
79369;SDS011;68835;53.096;17.932;2023-08-30T05:37:26;11.00;;;3.40;;
79369;SDS011;68835;53.096;17.932;2023-08-30T05:39:53;14.70;;;4.10;;
79369;SDS011;68835;53.096;17.932;2023-08-30T05:42:21;7.20;;;2.60;;
79369;SDS011;68835;53.096;17.932;2023-08-30T05:44:49;8.60;;;3.70;;
79369;SDS011;68835;53.096;17.932;2023-08-30T05:47:17;5.70;;;2.80;;
79369;SDS011;68835;53.096;17.932;2023-08-30T05:49:46;10.40;;;3.70;;
79369;SDS011;68835;53.096;17.932;2023-08-30T05:52:14;10.20;;;4.30;;
79369;SDS011;68835;53.096;17.932;2023-08-30T05:54:45;7.80;;;3.00;;
79369;SDS011;68835;53.096;17.932;2023-08-30T05:59:39;8.10;;;2.60;;
79369;SDS011;68835;53.096;17.932;2023-08-30T06:02:07;7.30;;;2.60;;
79369;SDS011;68835;53.096;17.932;2023-08-30T06:07:01;7.10;;;2.80;;
79369;SDS011;68835;53.096;17.932;2023-08-30T06:09:30;6.90;;;2.70;;
79369;SDS011;68835;53.096;17.932;2023-08-30T06:11:57;5.40;;;1.90;;
79369;SDS011;68835;53.096;17.932;2023-08-30T06:16:52;5.20;;;2.20;;
79369;SDS011;68835;53.096;17.932;2023-08-30T06:21:46;9.90;;;4.20;;
79369;SDS011;68835;53.096;17.932;2023-08-30T06:24:14;12.40;;;4.60;;
79369;SDS011;68835;53.096;17.932;2023-08-30T06:26:41;6.70;;;2.80;;
79369;SDS011;68835;53.096;17.932;2023-08-30T06:29:08;9.50;;;3.90;;
79369;SDS011;68835;53.096;17.932;2023-08-30T06:31:36;10.90;;;3.30;;
79369;SDS011;68835;53.096;17.932;2023-08-30T06:34:03;7.40;;;2.70;;
79369;SDS011;68835;53.096;17.932;2023-08-30T06:38:58;7.50;;;3.00;;
79369;SDS011;68835;53.096;17.932;2023-08-30T06:41:25;5.10;;;1.70;;
79369;SDS011;68835;53.096;17.932;2023-08-30T06:46:20;8.10;;;3.00;;
79369;SDS011;68835;53.096;17.932;2023-08-30T06:48:47;5.10;;;1.70;;
79369;SDS011;68835;53.096;17.932;2023-08-30T06:51:15;6.00;;;2.20;;
79369;SDS011;68835;53.096;17.932;2023-08-30T06:56:09;4.20;;;1.70;;
79369;SDS011;68835;53.096;17.932;2023-08-30T06:58:36;7.20;;;2.50;;
79369;SDS011;68835;53.096;17.932;2023-08-30T07:01:04;4.30;;;1.80;;
79369;SDS011;68835;53.096;17.932;2023-08-30T07:03:31;5.40;;;2.40;;
79369;SDS011;68835;53.096;17.932;2023-08-30T07:05:59;8.00;;;2.40;;
79369;SDS011;68835;53.096;17.932;2023-08-30T07:10:53;6.40;;;2.60;;
79369;SDS011;68835;53.096;17.932;2023-08-30T07:13:21;6.70;;;2.50;;
79369;SDS011;68835;53.096;17.932;2023-08-30T07:15:48;8.20;;;2.70;;
79369;SDS011;68835;53.096;17.932;2023-08-30T07:18:15;3.20;;;1.60;;
79369;SDS011;68835;53.096;17.932;2023-08-30T07:20:43;5.80;;;2.60;;
79369;SDS011;68835;53.096;17.932;2023-08-30T07:23:11;11.70;;;2.90;;
79369;SDS011;68835;53.096;17.932;2023-08-30T07:25:38;4.90;;;1.90;;
79369;SDS011;68835;53.096;17.932;2023-08-30T07:28:06;5.10;;;2.60;;
79369;SDS011;68835;53.096;17.932;2023-08-30T07:30:33;4.70;;;2.20;;
79369;SDS011;68835;53.096;17.932;2023-08-30T07:33:02;4.10;;;1.80;;
79369;SDS011;68835;53.096;17.932;2023-08-30T07:35:31;5.80;;;2.70;;
79369;SDS011;68835;53.096;17.932;2023-08-30T07:37:59;5.90;;;2.60;;
79369;SDS011;68835;53.096;17.932;2023-08-30T07:40:27;7.10;;;3.10;;
79369;SDS011;68835;53.096;17.932;2023-08-30T07:42:55;5.00;;;2.20;;
79369;SDS011;68835;53.096;17.932;2023-08-30T07:45:22;4.40;;;2.10;;
79369;SDS011;68835;53.096;17.932;2023-08-30T07:50:17;4.20;;;2.10;;
79369;SDS011;68835;53.096;17.932;2023-08-30T07:52:44;3.20;;;1.80;;
79369;SDS011;68835;53.096;17.932;2023-08-30T07:55:13;4.70;;;2.40;;
79369;SDS011;68835;53.096;17.932;2023-08-30T07:57:40;4.80;;;2.30;;
79369;SDS011;68835;53.096;17.932;2023-08-30T08:00:08;3.00;;;1.50;;
79369;SDS011;68835;53.096;17.932;2023-08-30T08:02:39;3.40;;;1.80;;
79369;SDS011;68835;53.096;17.932;2023-08-30T08:05:07;4.50;;;1.80;;
79369;SDS011;68835;53.096;17.932;2023-08-30T08:07:38;4.00;;;2.10;;
79369;SDS011;68835;53.096;17.932;2023-08-30T08:10:09;3.20;;;1.40;;
79369;SDS011;68835;53.096;17.932;2023-08-30T08:12:37;4.60;;;2.30;;
79369;SDS011;68835;53.096;17.932;2023-08-30T08:15:04;7.30;;;2.40;;
79369;SDS011;68835;53.096;17.932;2023-08-30T08:17:32;2.70;;;1.50;;
79369;SDS011;68835;53.096;17.932;2023-08-30T08:22:27;2.30;;;1.50;;
79369;SDS011;68835;53.096;17.932;2023-08-30T08:24:55;2.80;;;1.40;;
79369;SDS011;68835;53.096;17.932;2023-08-30T08:27:26;4.10;;;2.00;;
79369;SDS011;68835;53.096;17.932;2023-08-30T08:29:54;3.50;;;1.90;;
79369;SDS011;68835;53.096;17.932;2023-08-30T08:32:21;2.50;;;1.50;;
79369;SDS011;68835;53.096;17.932;2023-08-30T08:34:48;3.70;;;2.20;;
79369;SDS011;68835;53.096;17.932;2023-08-30T08:39:43;3.50;;;2.20;;
79369;SDS011;68835;53.096;17.932;2023-08-30T08:42:13;4.10;;;2.40;;
79369;SDS011;68835;53.096;17.932;2023-08-30T08:44:43;2.80;;;1.70;;
79369;SDS011;68835;53.096;17.932;2023-08-30T08:47:16;3.10;;;1.70;;
79369;SDS011;68835;53.096;17.932;2023-08-30T08:49:44;2.70;;;1.60;;
79369;SDS011;68835;53.096;17.932;2023-08-30T08:52:12;4.70;;;2.20;;
79369;SDS011;68835;53.096;17.932;2023-08-30T08:54:41;5.30;;;1.90;;
79369;SDS011;68835;53.096;17.932;2023-08-30T08:57:10;3.50;;;1.90;;
79369;SDS011;68835;53.096;17.932;2023-08-30T08:59:37;4.00;;;2.30;;
79369;SDS011;68835;53.096;17.932;2023-08-30T09:02:05;3.60;;;1.90;;
79369;SDS011;68835;53.096;17.932;2023-08-30T09:04:33;6.40;;;2.80;;
79369;SDS011;68835;53.096;17.932;2023-08-30T09:09:28;3.40;;;1.90;;
79369;SDS011;68835;53.096;17.932;2023-08-30T09:14:23;3.10;;;1.70;;
79369;SDS011;68835;53.096;17.932;2023-08-30T09:16:57;3.70;;;2.30;;
79369;SDS011;68835;53.096;17.932;2023-08-30T09:19:28;4.00;;;2.40;;
79369;SDS011;68835;53.096;17.932;2023-08-30T09:21:57;5.20;;;2.20;;
79369;SDS011;68835;53.096;17.932;2023-08-30T09:24:25;3.30;;;2.00;;
79369;SDS011;68835;53.096;17.932;2023-08-30T09:26:53;4.30;;;2.70;;
79369;SDS011;68835;53.096;17.932;2023-08-30T09:29:21;4.40;;;3.10;;
79369;SDS011;68835;53.096;17.932;2023-08-30T09:31:52;3.00;;;1.80;;
79369;SDS011;68835;53.096;17.932;2023-08-30T09:34:26;3.10;;;2.10;;
79369;SDS011;68835;53.096;17.932;2023-08-30T09:36:54;6.00;;;2.70;;
79369;SDS011;68835;53.096;17.932;2023-08-30T09:39:22;5.10;;;3.10;;
79369;SDS011;68835;53.096;17.932;2023-08-30T09:41:50;2.90;;;1.90;;
79369;SDS011;68835;53.096;17.932;2023-08-30T09:44:18;6.70;;;3.30;;
79369;SDS011;68835;53.096;17.932;2023-08-30T09:46:52;5.70;;;3.30;;
79369;SDS011;68835;53.096;17.932;2023-08-30T09:49:21;2.50;;;2.00;;
79369;SDS011;68835;53.096;17.932;2023-08-30T09:51:50;2.50;;;1.60;;
79369;SDS011;68835;53.096;17.932;2023-08-30T09:54:19;5.60;;;2.60;;
79369;SDS011;68835;53.096;17.932;2023-08-30T09:56:47;3.20;;;2.20;;
79369;SDS011;68835;53.096;17.932;2023-08-30T09:59:16;5.70;;;2.30;;
79369;SDS011;68835;53.096;17.932;2023-08-30T10:01:43;1.80;;;1.50;;
79369;SDS011;68835;53.096;17.932;2023-08-30T10:04:13;4.10;;;2.40;;
79369;SDS011;68835;53.096;17.932;2023-08-30T10:06:41;3.70;;;2.30;;
79369;SDS011;68835;53.096;17.932;2023-08-30T10:09:10;2.50;;;1.60;;
79369;SDS011;68835;53.096;17.932;2023-08-30T10:11:38;3.30;;;2.00;;
79369;SDS011;68835;53.096;17.932;2023-08-30T10:14:06;3.20;;;1.80;;
79369;SDS011;68835;53.096;17.932;2023-08-30T10:16:43;2.90;;;2.00;;
79369;SDS011;68835;53.096;17.932;2023-08-30T10:19:24;5.50;;;2.50;;
79369;SDS011;68835;53.096;17.932;2023-08-30T10:22:00;4.20;;;2.70;;
79369;SDS011;68835;53.096;17.932;2023-08-30T10:24:36;4.70;;;2.60;;
79369;SDS011;68835;53.096;17.932;2023-08-30T10:27:08;3.80;;;2.30;;
79369;SDS011;68835;53.096;17.932;2023-08-30T10:29:37;3.60;;;2.30;;
79369;SDS011;68835;53.096;17.932;2023-08-30T10:32:07;5.30;;;2.30;;
79369;SDS011;68835;53.096;17.932;2023-08-30T10:34:35;2.70;;;1.60;;
79369;SDS011;68835;53.096;17.932;2023-08-30T10:37:06;2.70;;;2.00;;
79369;SDS011;68835;53.096;17.932;2023-08-30T10:39:35;5.20;;;2.40;;
79369;SDS011;68835;53.096;17.932;2023-08-30T10:42:12;5.00;;;2.50;;
79369;SDS011;68835;53.096;17.932;2023-08-30T10:44:47;3.50;;;2.30;;
79369;SDS011;68835;53.096;17.932;2023-08-30T10:47:36;3.10;;;1.90;;
79369;SDS011;68835;53.096;17.932;2023-08-30T10:50:05;2.30;;;1.80;;
79369;SDS011;68835;53.096;17.932;2023-08-30T10:52:35;3.70;;;2.40;;
79369;SDS011;68835;53.096;17.932;2023-08-30T10:57:37;5.10;;;2.50;;
79369;SDS011;68835;53.096;17.932;2023-08-30T11:00:09;4.10;;;2.10;;
79369;SDS011;68835;53.096;17.932;2023-08-30T11:02:48;2.20;;;1.60;;
79369;SDS011;68835;53.096;17.932;2023-08-30T11:05:17;2.70;;;1.90;;
79369;SDS011;68835;53.096;17.932;2023-08-30T11:07:46;4.20;;;2.40;;
79369;SDS011;68835;53.096;17.932;2023-08-30T11:10:15;4.40;;;2.30;;
79369;SDS011;68835;53.096;17.932;2023-08-30T11:12:44;5.20;;;1.90;;
79369;SDS011;68835;53.096;17.932;2023-08-30T11:15:13;8.10;;;3.20;;
79369;SDS011;68835;53.096;17.932;2023-08-30T11:17:43;2.90;;;2.00;;
79369;SDS011;68835;53.096;17.932;2023-08-30T11:20:12;2.60;;;1.80;;
79369;SDS011;68835;53.096;17.932;2023-08-30T11:22:44;6.50;;;2.10;;
79369;SDS011;68835;53.096;17.932;2023-08-30T11:25:14;4.10;;;2.50;;
79369;SDS011;68835;53.096;17.932;2023-08-30T11:27:43;3.20;;;1.90;;
79369;SDS011;68835;53.096;17.932;2023-08-30T11:30:11;4.50;;;2.20;;
79369;SDS011;68835;53.096;17.932;2023-08-30T11:32:39;3.60;;;2.20;;
79369;SDS011;68835;53.096;17.932;2023-08-30T11:35:10;5.60;;;2.30;;
79369;SDS011;68835;53.096;17.932;2023-08-30T11:37:37;3.50;;;2.20;;
79369;SDS011;68835;53.096;17.932;2023-08-30T11:40:05;5.50;;;2.10;;
79369;SDS011;68835;53.096;17.932;2023-08-30T11:42:33;4.60;;;2.00;;
79369;SDS011;68835;53.096;17.932;2023-08-30T11:45:00;4.50;;;2.10;;
79369;SDS011;68835;53.096;17.932;2023-08-30T11:47:29;4.40;;;2.00;;
79369;SDS011;68835;53.096;17.932;2023-08-30T11:49:56;2.90;;;2.00;;
79369;SDS011;68835;53.096;17.932;2023-08-30T11:52:25;3.80;;;2.10;;
79369;SDS011;68835;53.096;17.932;2023-08-30T11:54:54;2.60;;;1.60;;
79369;SDS011;68835;53.096;17.932;2023-08-30T11:57:22;2.10;;;1.50;;
79369;SDS011;68835;53.096;17.932;2023-08-30T11:59:50;2.10;;;1.60;;
79369;SDS011;68835;53.096;17.932;2023-08-30T12:02:18;3.40;;;1.40;;
79369;SDS011;68835;53.096;17.932;2023-08-30T12:04:46;3.70;;;1.80;;
79369;SDS011;68835;53.096;17.932;2023-08-30T12:07:26;2.40;;;1.50;;
79369;SDS011;68835;53.096;17.932;2023-08-30T12:10:03;3.80;;;2.00;;
79369;SDS011;68835;53.096;17.932;2023-08-30T12:12:32;2.80;;;1.50;;
79369;SDS011;68835;53.096;17.932;2023-08-30T12:14:59;3.00;;;1.60;;
79369;SDS011;68835;53.096;17.932;2023-08-30T12:19:57;4.20;;;1.90;;
79369;SDS011;68835;53.096;17.932;2023-08-30T12:22:35;2.30;;;1.60;;
79369;SDS011;68835;53.096;17.932;2023-08-30T12:25:16;3.00;;;1.70;;
79369;SDS011;68835;53.096;17.932;2023-08-30T12:27:50;2.40;;;1.20;;
79369;SDS011;68835;53.096;17.932;2023-08-30T12:30:18;2.00;;;1.40;;
79369;SDS011;68835;53.096;17.932;2023-08-30T12:32:46;2.20;;;1.20;;
79369;SDS011;68835;53.096;17.932;2023-08-30T12:35:14;2.30;;;1.40;;
79369;SDS011;68835;53.096;17.932;2023-08-30T12:37:42;1.80;;;1.40;;
79369;SDS011;68835;53.096;17.932;2023-08-30T12:40:10;2.80;;;1.40;;
79369;SDS011;68835;53.096;17.932;2023-08-30T12:42:38;2.40;;;1.40;;
79369;SDS011;68835;53.096;17.932;2023-08-30T12:45:06;6.20;;;1.90;;
79369;SDS011;68835;53.096;17.932;2023-08-30T12:47:34;2.70;;;1.80;;
79369;SDS011;68835;53.096;17.932;2023-08-30T12:50:02;2.80;;;1.80;;
79369;SDS011;68835;53.096;17.932;2023-08-30T12:52:29;5.40;;;2.50;;
79369;SDS011;68835;53.096;17.932;2023-08-30T12:54:57;5.90;;;2.90;;
79369;SDS011;68835;53.096;17.932;2023-08-30T12:57:24;3.20;;;1.40;;
79369;SDS011;68835;53.096;17.932;2023-08-30T12:59:53;2.40;;;1.30;;
79369;SDS011;68835;53.096;17.932;2023-08-30T13:02:20;1.70;;;1.00;;
79369;SDS011;68835;53.096;17.932;2023-08-30T13:04:47;2.40;;;1.50;;
79369;SDS011;68835;53.096;17.932;2023-08-30T13:07:15;3.90;;;1.90;;
79369;SDS011;68835;53.096;17.932;2023-08-30T13:09:43;2.70;;;1.50;;
79369;SDS011;68835;53.096;17.932;2023-08-30T13:12:10;3.00;;;1.30;;
79369;SDS011;68835;53.096;17.932;2023-08-30T13:14:37;3.50;;;1.70;;
79369;SDS011;68835;53.096;17.932;2023-08-30T13:19:32;1.50;;;1.20;;
79369;SDS011;68835;53.096;17.932;2023-08-30T13:22:00;2.40;;;1.60;;
79369;SDS011;68835;53.096;17.932;2023-08-30T13:24:27;2.70;;;1.30;;
79369;SDS011;68835;53.096;17.932;2023-08-30T13:26:55;1.60;;;1.10;;
79369;SDS011;68835;53.096;17.932;2023-08-30T13:29:22;3.10;;;1.50;;
79369;SDS011;68835;53.096;17.932;2023-08-30T13:31:50;2.90;;;1.60;;
79369;SDS011;68835;53.096;17.932;2023-08-30T13:34:18;2.70;;;1.70;;
79369;SDS011;68835;53.096;17.932;2023-08-30T13:36:46;4.10;;;1.50;;
79369;SDS011;68835;53.096;17.932;2023-08-30T13:39:14;3.60;;;1.80;;
79369;SDS011;68835;53.096;17.932;2023-08-30T13:41:42;3.70;;;1.90;;
79369;SDS011;68835;53.096;17.932;2023-08-30T13:44:10;2.40;;;1.60;;
79369;SDS011;68835;53.096;17.932;2023-08-30T13:46:38;5.10;;;1.70;;
79369;SDS011;68835;53.096;17.932;2023-08-30T13:49:06;2.60;;;1.50;;
79369;SDS011;68835;53.096;17.932;2023-08-30T13:51:34;1.80;;;1.10;;
79369;SDS011;68835;53.096;17.932;2023-08-30T13:54:03;1.80;;;1.40;;
79369;SDS011;68835;53.096;17.932;2023-08-30T13:56:32;3.50;;;1.10;;
79369;SDS011;68835;53.096;17.932;2023-08-30T13:58:59;1.70;;;1.30;;
79369;SDS011;68835;53.096;17.932;2023-08-30T14:01:28;3.00;;;1.30;;
79369;SDS011;68835;53.096;17.932;2023-08-30T14:03:56;1.70;;;1.20;;
79369;SDS011;68835;53.096;17.932;2023-08-30T14:06:23;1.30;;;0.90;;
79369;SDS011;68835;53.096;17.932;2023-08-30T14:08:50;1.30;;;0.90;;
79369;SDS011;68835;53.096;17.932;2023-08-30T14:11:18;1.60;;;1.40;;
79369;SDS011;68835;53.096;17.932;2023-08-30T14:13:47;1.10;;;1.00;;
79369;SDS011;68835;53.096;17.932;2023-08-30T14:16:14;2.10;;;1.40;;
79369;SDS011;68835;53.096;17.932;2023-08-30T14:18:42;1.70;;;1.20;;
79369;SDS011;68835;53.096;17.932;2023-08-30T14:21:10;2.70;;;1.30;;
79369;SDS011;68835;53.096;17.932;2023-08-30T14:23:37;1.50;;;1.20;;
79369;SDS011;68835;53.096;17.932;2023-08-30T14:26:05;1.10;;;1.00;;
79369;SDS011;68835;53.096;17.932;2023-08-30T14:28:37;2.50;;;1.70;;
79369;SDS011;68835;53.096;17.932;2023-08-30T14:31:08;2.30;;;1.50;;
79369;SDS011;68835;53.096;17.932;2023-08-30T14:33:37;1.60;;;1.30;;
79369;SDS011;68835;53.096;17.932;2023-08-30T14:36:09;2.00;;;1.40;;
79369;SDS011;68835;53.096;17.932;2023-08-30T14:38:37;1.50;;;1.30;;
79369;SDS011;68835;53.096;17.932;2023-08-30T14:41:06;1.30;;;1.10;;
79369;SDS011;68835;53.096;17.932;2023-08-30T14:43:33;1.30;;;1.10;;
79369;SDS011;68835;53.096;17.932;2023-08-30T14:46:05;1.60;;;1.20;;
79369;SDS011;68835;53.096;17.932;2023-08-30T14:48:34;4.00;;;1.60;;
79369;SDS011;68835;53.096;17.932;2023-08-30T14:51:04;3.50;;;1.60;;
79369;SDS011;68835;53.096;17.932;2023-08-30T14:53:32;1.10;;;1.00;;
79369;SDS011;68835;53.096;17.932;2023-08-30T14:56:01;1.60;;;1.00;;
79369;SDS011;68835;53.096;17.932;2023-08-30T14:58:34;1.90;;;1.20;;
79369;SDS011;68835;53.096;17.932;2023-08-30T15:01:02;2.10;;;1.00;;
79369;SDS011;68835;53.096;17.932;2023-08-30T15:03:31;1.90;;;1.20;;
79369;SDS011;68835;53.096;17.932;2023-08-30T15:05:59;1.90;;;1.30;;
79369;SDS011;68835;53.096;17.932;2023-08-30T15:08:27;20.00;;;9.00;;
79369;SDS011;68835;53.096;17.932;2023-08-30T15:10:56;89.20;;;23.90;;
79369;SDS011;68835;53.096;17.932;2023-08-30T15:13:25;26.40;;;8.60;;
79369;SDS011;68835;53.096;17.932;2023-08-30T15:15:53;6.30;;;2.90;;
79369;SDS011;68835;53.096;17.932;2023-08-30T15:18:22;38.70;;;14.90;;
79369;SDS011;68835;53.096;17.932;2023-08-30T15:20:53;16.40;;;8.80;;
79369;SDS011;68835;53.096;17.932;2023-08-30T15:23:22;5.30;;;3.50;;
79369;SDS011;68835;53.096;17.932;2023-08-30T15:25:51;14.30;;;12.90;;
79369;SDS011;68835;53.096;17.932;2023-08-30T15:28:19;8.00;;;7.20;;
79369;SDS011;68835;53.096;17.932;2023-08-30T15:30:47;3.90;;;3.30;;
79369;SDS011;68835;53.096;17.932;2023-08-30T15:33:17;2.00;;;1.60;;
79369;SDS011;68835;53.096;17.932;2023-08-30T15:35:46;2.00;;;1.70;;
79369;SDS011;68835;53.096;17.932;2023-08-30T15:38:14;11.40;;;8.80;;
79369;SDS011;68835;53.096;17.932;2023-08-30T15:40:43;7.20;;;5.00;;
79369;SDS011;68835;53.096;17.932;2023-08-30T15:43:11;3.90;;;2.10;;
79369;SDS011;68835;53.096;17.932;2023-08-30T15:45:39;1.80;;;1.40;;
79369;SDS011;68835;53.096;17.932;2023-08-30T15:48:09;2.10;;;1.60;;
79369;SDS011;68835;53.096;17.932;2023-08-30T15:50:38;3.30;;;2.50;;
79369;SDS011;68835;53.096;17.932;2023-08-30T15:53:06;1.50;;;1.20;;
79369;SDS011;68835;53.096;17.932;2023-08-30T15:55:34;1.70;;;1.20;;
79369;SDS011;68835;53.096;17.932;2023-08-30T15:58:02;2.00;;;1.40;;
79369;SDS011;68835;53.096;17.932;2023-08-30T16:00:30;2.00;;;1.40;;
79369;SDS011;68835;53.096;17.932;2023-08-30T16:03:00;3.00;;;2.00;;
79369;SDS011;68835;53.096;17.932;2023-08-30T16:05:28;1.70;;;1.40;;
79369;SDS011;68835;53.096;17.932;2023-08-30T16:07:56;2.30;;;1.70;;